sensor_id;sensor_type;location;lat;lon;timestamp;temperature;humidity
53876;DHT22;39789;53.216;5.624;2023-11-19T00:00:50;11.80;99.90
53876;DHT22;39789;53.216;5.624;2023-11-19T00:03:19;11.70;99.90
53876;DHT22;39789;53.216;5.624;2023-11-19T00:05:45;11.80;99.90
53876;DHT22;39789;53.216;5.624;2023-11-19T00:08:11;11.80;99.90
53876;DHT22;39789;53.216;5.624;2023-11-19T00:10:36;12.90;99.90
53876;DHT22;39789;53.216;5.624;2023-11-19T00:13:03;11.70;99.90
53876;DHT22;39789;53.216;5.624;2023-11-19T00:15:29;12.00;99.90
53876;DHT22;39789;53.216;5.624;2023-11-19T00:17:54;11.80;99.90
53876;DHT22;39789;53.216;5.624;2023-11-19T00:20:20;13.20;99.90
53876;DHT22;39789;53.216;5.624;2023-11-19T00:22:47;11.90;99.90
53876;DHT22;39789;53.216;5.624;2023-11-19T00:25:16;11.80;99.90
53876;DHT22;39789;53.216;5.624;2023-11-19T00:27:42;13.30;99.90
53876;DHT22;39789;53.216;5.624;2023-11-19T00:30:10;11.90;99.90
53876;DHT22;39789;53.216;5.624;2023-11-19T00:32:36;11.90;99.90
53876;DHT22;39789;53.216;5.624;2023-11-19T00:35:04;11.90;99.90
53876;DHT22;39789;53.216;5.624;2023-11-19T00:37:31;11.90;99.90
53876;DHT22;39789;53.216;5.624;2023-11-19T00:39:56;11.90;99.90
53876;DHT22;39789;53.216;5.624;2023-11-19T00:42:24;11.90;99.90
53876;DHT22;39789;53.216;5.624;2023-11-19T00:44:50;12.20;99.90
53876;DHT22;39789;53.216;5.624;2023-11-19T00:47:15;11.90;99.90
53876;DHT22;39789;53.216;5.624;2023-11-19T00:49:41;11.80;99.90
53876;DHT22;39789;53.216;5.624;2023-11-19T00:52:08;11.80;99.90
53876;DHT22;39789;53.216;5.624;2023-11-19T00:54:34;12.30;99.90
53876;DHT22;39789;53.216;5.624;2023-11-19T00:56:59;11.80;99.90
53876;DHT22;39789;53.216;5.624;2023-11-19T00:59:27;11.70;99.90
53876;DHT22;39789;53.216;5.624;2023-11-19T01:01:54;12.90;99.90
53876;DHT22;39789;53.216;5.624;2023-11-19T01:04:19;11.70;99.90
53876;DHT22;39789;53.216;5.624;2023-11-19T01:06:45;11.70;99.90
53876;DHT22;39789;53.216;5.624;2023-11-19T01:09:11;13.10;99.90
53876;DHT22;39789;53.216;5.624;2023-11-19T01:11:36;11.70;99.90
53876;DHT22;39789;53.216;5.624;2023-11-19T01:14:02;12.40;99.90
53876;DHT22;39789;53.216;5.624;2023-11-19T01:16:28;13.30;99.90
53876;DHT22;39789;53.216;5.624;2023-11-19T01:18:53;11.60;99.90
53876;DHT22;39789;53.216;5.624;2023-11-19T01:21:20;11.60;99.90
53876;DHT22;39789;53.216;5.624;2023-11-19T01:23:45;11.60;99.90
53876;DHT22;39789;53.216;5.624;2023-11-19T01:26:11;11.60;99.90
53876;DHT22;39789;53.216;5.624;2023-11-19T01:28:38;11.60;99.90
53876;DHT22;39789;53.216;5.624;2023-11-19T01:31:15;11.50;99.90
53876;DHT22;39789;53.216;5.624;2023-11-19T01:33:41;12.90;99.90
53876;DHT22;39789;53.216;5.624;2023-11-19T01:36:13;11.50;99.90
53876;DHT22;39789;53.216;5.624;2023-11-19T01:38:38;11.40;99.90
53876;DHT22;39789;53.216;5.624;2023-11-19T01:41:04;11.30;99.90
53876;DHT22;39789;53.216;5.624;2023-11-19T01:43:34;12.40;99.90
53876;DHT22;39789;53.216;5.624;2023-11-19T01:46:01;11.20;99.90
53876;DHT22;39789;53.216;5.624;2023-11-19T01:48:27;11.20;99.90
53876;DHT22;39789;53.216;5.624;2023-11-19T01:50:53;12.30;99.90
53876;DHT22;39789;53.216;5.624;2023-11-19T01:53:19;12.70;99.90
53876;DHT22;39789;53.216;5.624;2023-11-19T01:55:49;11.10;99.90
53876;DHT22;39789;53.216;5.624;2023-11-19T01:58:15;11.10;99.90
53876;DHT22;39789;53.216;5.624;2023-11-19T02:00:41;11.10;99.90
53876;DHT22;39789;53.216;5.624;2023-11-19T02:03:07;11.10;99.90
53876;DHT22;39789;53.216;5.624;2023-11-19T02:05:34;11.00;99.90
53876;DHT22;39789;53.216;5.624;2023-11-19T02:08:03;11.10;99.90
53876;DHT22;39789;53.216;5.624;2023-11-19T02:10:28;10.90;99.90
53876;DHT22;39789;53.216;5.624;2023-11-19T02:12:54;12.30;99.90
53876;DHT22;39789;53.216;5.624;2023-11-19T02:15:20;11.00;99.90
53876;DHT22;39789;53.216;5.624;2023-11-19T02:17:50;12.50;99.90
53876;DHT22;39789;53.216;5.624;2023-11-19T02:20:16;10.70;99.90
53876;DHT22;39789;53.216;5.624;2023-11-19T02:22:42;10.90;99.90
53876;DHT22;39789;53.216;5.624;2023-11-19T02:25:12;10.90;99.90
53876;DHT22;39789;53.216;5.624;2023-11-19T02:27:59;10.90;99.90
53876;DHT22;39789;53.216;5.624;2023-11-19T02:30:26;10.90;99.90
53876;DHT22;39789;53.216;5.624;2023-11-19T02:32:56;11.00;99.90
53876;DHT22;39789;53.216;5.624;2023-11-19T02:35:23;11.00;99.90
53876;DHT22;39789;53.216;5.624;2023-11-19T02:37:49;11.00;99.90
53876;DHT22;39789;53.216;5.624;2023-11-19T02:40:15;11.00;99.90
53876;DHT22;39789;53.216;5.624;2023-11-19T02:42:40;11.00;99.90
53876;DHT22;39789;53.216;5.624;2023-11-19T02:45:10;12.00;99.90
53876;DHT22;39789;53.216;5.624;2023-11-19T02:47:43;11.10;99.90
53876;DHT22;39789;53.216;5.624;2023-11-19T02:50:13;12.60;99.90
53876;DHT22;39789;53.216;5.624;2023-11-19T02:52:44;11.10;99.90
53876;DHT22;39789;53.216;5.624;2023-11-19T02:55:11;11.10;99.90
53876;DHT22;39789;53.216;5.624;2023-11-19T02:57:40;11.10;99.90
53876;DHT22;39789;53.216;5.624;2023-11-19T03:00:16;11.10;99.90
53876;DHT22;39789;53.216;5.624;2023-11-19T03:02:43;11.10;99.90
53876;DHT22;39789;53.216;5.624;2023-11-19T03:05:15;11.50;99.90
53876;DHT22;39789;53.216;5.624;2023-11-19T03:07:43;11.00;99.90
53876;DHT22;39789;53.216;5.624;2023-11-19T03:10:12;11.00;99.90
53876;DHT22;39789;53.216;5.624;2023-11-19T03:12:43;11.00;99.90
53876;DHT22;39789;53.216;5.624;2023-11-19T03:15:09;11.00;99.90
53876;DHT22;39789;53.216;5.624;2023-11-19T03:17:44;11.10;99.90
53876;DHT22;39789;53.216;5.624;2023-11-19T03:20:11;11.10;99.90
53876;DHT22;39789;53.216;5.624;2023-11-19T03:22:41;11.10;99.90
53876;DHT22;39789;53.216;5.624;2023-11-19T03:25:10;11.10;99.90
53876;DHT22;39789;53.216;5.624;2023-11-19T03:27:36;11.10;99.90
53876;DHT22;39789;53.216;5.624;2023-11-19T03:30:03;12.00;99.90
53876;DHT22;39789;53.216;5.624;2023-11-19T03:32:31;11.10;99.90
53876;DHT22;39789;53.216;5.624;2023-11-19T03:34:57;11.10;99.90
53876;DHT22;39789;53.216;5.624;2023-11-19T03:37:23;11.00;99.90
53876;DHT22;39789;53.216;5.624;2023-11-19T03:39:49;11.00;99.90
53876;DHT22;39789;53.216;5.624;2023-11-19T03:42:15;11.00;99.90
53876;DHT22;39789;53.216;5.624;2023-11-19T03:44:40;10.90;99.90
53876;DHT22;39789;53.216;5.624;2023-11-19T03:47:06;10.90;99.90
53876;DHT22;39789;53.216;5.624;2023-11-19T03:49:32;10.90;99.90
53876;DHT22;39789;53.216;5.624;2023-11-19T03:51:57;10.90;99.90
53876;DHT22;39789;53.216;5.624;2023-11-19T03:54:23;10.80;99.90
53876;DHT22;39789;53.216;5.624;2023-11-19T03:56:49;11.90;99.90
53876;DHT22;39789;53.216;5.624;2023-11-19T03:59:14;10.80;99.90
53876;DHT22;39789;53.216;5.624;2023-11-19T04:01:41;10.80;99.90
53876;DHT22;39789;53.216;5.624;2023-11-19T04:04:06;10.80;99.90
53876;DHT22;39789;53.216;5.624;2023-11-19T04:06:32;12.50;99.90
53876;DHT22;39789;53.216;5.624;2023-11-19T04:08:58;10.70;99.90
53876;DHT22;39789;53.216;5.624;2023-11-19T04:11:23;10.70;99.90
53876;DHT22;39789;53.216;5.624;2023-11-19T04:13:49;10.80;99.90
53876;DHT22;39789;53.216;5.624;2023-11-19T04:16:15;10.70;99.90
53876;DHT22;39789;53.216;5.624;2023-11-19T04:18:40;10.70;99.90
53876;DHT22;39789;53.216;5.624;2023-11-19T04:21:09;10.70;99.90
53876;DHT22;39789;53.216;5.624;2023-11-19T04:23:35;10.70;99.90
53876;DHT22;39789;53.216;5.624;2023-11-19T04:26:04;10.80;99.90
53876;DHT22;39789;53.216;5.624;2023-11-19T04:28:30;10.80;99.90
53876;DHT22;39789;53.216;5.624;2023-11-19T04:30:56;10.90;99.90
53876;DHT22;39789;53.216;5.624;2023-11-19T04:33:22;10.80;99.90
53876;DHT22;39789;53.216;5.624;2023-11-19T04:35:47;10.90;99.90
53876;DHT22;39789;53.216;5.624;2023-11-19T04:38:13;11.90;99.90
53876;DHT22;39789;53.216;5.624;2023-11-19T04:40:39;10.90;99.90
53876;DHT22;39789;53.216;5.624;2023-11-19T04:43:05;12.30;99.90
53876;DHT22;39789;53.216;5.624;2023-11-19T04:45:35;10.60;99.90
53876;DHT22;39789;53.216;5.624;2023-11-19T04:48:01;10.60;99.90
53876;DHT22;39789;53.216;5.624;2023-11-19T04:50:26;10.90;99.90
53876;DHT22;39789;53.216;5.624;2023-11-19T04:52:52;10.90;99.90
53876;DHT22;39789;53.216;5.624;2023-11-19T04:55:19;10.90;99.90
53876;DHT22;39789;53.216;5.624;2023-11-19T04:57:45;11.00;99.90
53876;DHT22;39789;53.216;5.624;2023-11-19T05:00:11;12.60;99.90
53876;DHT22;39789;53.216;5.624;2023-11-19T05:02:37;11.00;99.90
53876;DHT22;39789;53.216;5.624;2023-11-19T05:05:05;11.00;99.90
53876;DHT22;39789;53.216;5.624;2023-11-19T05:07:31;11.00;99.90
53876;DHT22;39789;53.216;5.624;2023-11-19T05:09:57;11.00;99.90
53876;DHT22;39789;53.216;5.624;2023-11-19T05:12:23;11.00;99.90
53876;DHT22;39789;53.216;5.624;2023-11-19T05:14:49;11.00;99.90
53876;DHT22;39789;53.216;5.624;2023-11-19T05:17:19;11.00;99.90
53876;DHT22;39789;53.216;5.624;2023-11-19T05:19:45;11.00;99.90
53876;DHT22;39789;53.216;5.624;2023-11-19T05:22:11;10.90;99.90
53876;DHT22;39789;53.216;5.624;2023-11-19T05:24:38;10.90;99.90
53876;DHT22;39789;53.216;5.624;2023-11-19T05:27:05;10.90;99.90
53876;DHT22;39789;53.216;5.624;2023-11-19T05:29:32;10.90;99.90
53876;DHT22;39789;53.216;5.624;2023-11-19T05:31:57;10.90;99.90
53876;DHT22;39789;53.216;5.624;2023-11-19T05:34:23;10.90;99.90
53876;DHT22;39789;53.216;5.624;2023-11-19T05:36:50;10.70;99.90
53876;DHT22;39789;53.216;5.624;2023-11-19T05:39:16;10.90;99.90
53876;DHT22;39789;53.216;5.624;2023-11-19T05:41:44;11.80;99.90
53876;DHT22;39789;53.216;5.624;2023-11-19T05:44:09;11.00;99.90
53876;DHT22;39789;53.216;5.624;2023-11-19T05:46:35;11.00;99.90
53876;DHT22;39789;53.216;5.624;2023-11-19T05:49:05;11.00;99.90
53876;DHT22;39789;53.216;5.624;2023-11-19T05:51:31;10.90;99.90
53876;DHT22;39789;53.216;5.624;2023-11-19T05:53:57;10.80;99.90
53876;DHT22;39789;53.216;5.624;2023-11-19T05:56:25;10.70;99.90
53876;DHT22;39789;53.216;5.624;2023-11-19T05:58:57;11.30;99.90
53876;DHT22;39789;53.216;5.624;2023-11-19T06:01:24;12.10;99.90
53876;DHT22;39789;53.216;5.624;2023-11-19T06:03:50;11.00;99.90
53876;DHT22;39789;53.216;5.624;2023-11-19T06:06:16;12.20;99.90
53876;DHT22;39789;53.216;5.624;2023-11-19T06:08:41;12.10;99.90
53876;DHT22;39789;53.216;5.624;2023-11-19T06:11:07;11.00;99.90
53876;DHT22;39789;53.216;5.624;2023-11-19T06:13:38;12.30;99.90
53876;DHT22;39789;53.216;5.624;2023-11-19T06:16:07;11.00;99.90
53876;DHT22;39789;53.216;5.624;2023-11-19T06:18:32;11.00;99.90
53876;DHT22;39789;53.216;5.624;2023-11-19T06:20:59;11.50;99.90
53876;DHT22;39789;53.216;5.624;2023-11-19T06:23:25;11.00;99.90
53876;DHT22;39789;53.216;5.624;2023-11-19T06:25:51;10.70;99.90
53876;DHT22;39789;53.216;5.624;2023-11-19T06:28:16;12.00;99.90
53876;DHT22;39789;53.216;5.624;2023-11-19T06:30:42;10.90;99.90
53876;DHT22;39789;53.216;5.624;2023-11-19T06:33:07;11.00;99.90
53876;DHT22;39789;53.216;5.624;2023-11-19T06:35:33;11.90;99.90
53876;DHT22;39789;53.216;5.624;2023-11-19T06:38:02;11.00;99.90
53876;DHT22;39789;53.216;5.624;2023-11-19T06:40:33;11.00;99.90
53876;DHT22;39789;53.216;5.624;2023-11-19T06:43:00;10.70;99.90
53876;DHT22;39789;53.216;5.624;2023-11-19T06:45:28;12.60;99.90
53876;DHT22;39789;53.216;5.624;2023-11-19T06:47:53;11.00;99.90
53876;DHT22;39789;53.216;5.624;2023-11-19T06:50:19;10.90;99.90
53876;DHT22;39789;53.216;5.624;2023-11-19T06:52:45;11.00;99.90
53876;DHT22;39789;53.216;5.624;2023-11-19T06:55:11;11.00;99.90
53876;DHT22;39789;53.216;5.624;2023-11-19T06:57:39;12.50;99.90
53876;DHT22;39789;53.216;5.624;2023-11-19T07:00:06;12.30;99.90
53876;DHT22;39789;53.216;5.624;2023-11-19T07:02:32;11.00;99.90
53876;DHT22;39789;53.216;5.624;2023-11-19T07:05:00;12.50;99.90
53876;DHT22;39789;53.216;5.624;2023-11-19T07:07:28;10.00;99.90
53876;DHT22;39789;53.216;5.624;2023-11-19T07:12:20;11.00;99.90
53876;DHT22;39789;53.216;5.624;2023-11-19T07:14:46;12.20;99.90
53876;DHT22;39789;53.216;5.624;2023-11-19T07:17:12;9.80;99.90
53876;DHT22;39789;53.216;5.624;2023-11-19T07:19:37;10.80;99.90
53876;DHT22;39789;53.216;5.624;2023-11-19T07:22:04;11.50;99.90
53876;DHT22;39789;53.216;5.624;2023-11-19T07:24:30;10.80;99.90
53876;DHT22;39789;53.216;5.624;2023-11-19T07:26:57;10.80;99.90
53876;DHT22;39789;53.216;5.624;2023-11-19T07:29:22;11.70;99.90
53876;DHT22;39789;53.216;5.624;2023-11-19T07:31:49;10.90;99.90
53876;DHT22;39789;53.216;5.624;2023-11-19T07:34:15;10.70;99.90
53876;DHT22;39789;53.216;5.624;2023-11-19T07:36:40;11.00;99.90
53876;DHT22;39789;53.216;5.624;2023-11-19T07:39:06;11.00;99.90
53876;DHT22;39789;53.216;5.624;2023-11-19T07:41:33;11.10;99.90
53876;DHT22;39789;53.216;5.624;2023-11-19T07:44:00;11.10;99.90
53876;DHT22;39789;53.216;5.624;2023-11-19T07:46:26;11.10;99.90
53876;DHT22;39789;53.216;5.624;2023-11-19T07:48:55;11.10;99.90
53876;DHT22;39789;53.216;5.624;2023-11-19T07:51:20;11.10;99.90
53876;DHT22;39789;53.216;5.624;2023-11-19T07:53:50;11.10;99.90
53876;DHT22;39789;53.216;5.624;2023-11-19T07:56:15;11.20;99.90
53876;DHT22;39789;53.216;5.624;2023-11-19T07:58:41;11.20;99.90
53876;DHT22;39789;53.216;5.624;2023-11-19T08:01:07;11.60;99.90
53876;DHT22;39789;53.216;5.624;2023-11-19T08:03:33;13.00;99.90
53876;DHT22;39789;53.216;5.624;2023-11-19T08:06:00;12.00;99.90
53876;DHT22;39789;53.216;5.624;2023-11-19T08:08:25;11.20;99.90
53876;DHT22;39789;53.216;5.624;2023-11-19T08:10:51;12.30;99.90
53876;DHT22;39789;53.216;5.624;2023-11-19T08:13:18;11.20;99.90
53876;DHT22;39789;53.216;5.624;2023-11-19T08:15:45;11.00;99.90
53876;DHT22;39789;53.216;5.624;2023-11-19T08:18:11;11.20;99.90
53876;DHT22;39789;53.216;5.624;2023-11-19T08:20:37;11.20;99.90
53876;DHT22;39789;53.216;5.624;2023-11-19T08:23:03;12.00;99.90
53876;DHT22;39789;53.216;5.624;2023-11-19T08:25:31;11.40;99.90
53876;DHT22;39789;53.216;5.624;2023-11-19T08:28:01;11.40;99.90
53876;DHT22;39789;53.216;5.624;2023-11-19T08:30:32;12.20;99.90
53876;DHT22;39789;53.216;5.624;2023-11-19T08:32:57;11.80;99.90
53876;DHT22;39789;53.216;5.624;2023-11-19T08:35:24;11.30;99.90
53876;DHT22;39789;53.216;5.624;2023-11-19T08:37:49;11.30;99.90
53876;DHT22;39789;53.216;5.624;2023-11-19T08:40:15;11.40;99.90
53876;DHT22;39789;53.216;5.624;2023-11-19T08:42:41;11.40;99.90
53876;DHT22;39789;53.216;5.624;2023-11-19T08:45:08;11.50;99.90
53876;DHT22;39789;53.216;5.624;2023-11-19T08:47:37;11.60;99.90
53876;DHT22;39789;53.216;5.624;2023-11-19T08:50:03;12.00;99.90
53876;DHT22;39789;53.216;5.624;2023-11-19T08:52:30;11.60;99.90
53876;DHT22;39789;53.216;5.624;2023-11-19T08:54:55;11.60;99.90
53876;DHT22;39789;53.216;5.624;2023-11-19T08:57:21;12.70;99.90
53876;DHT22;39789;53.216;5.624;2023-11-19T08:59:47;11.70;99.90
53876;DHT22;39789;53.216;5.624;2023-11-19T09:02:13;11.70;99.90
53876;DHT22;39789;53.216;5.624;2023-11-19T09:04:38;11.70;99.90
53876;DHT22;39789;53.216;5.624;2023-11-19T09:07:04;11.70;99.90
53876;DHT22;39789;53.216;5.624;2023-11-19T09:09:30;11.50;99.90
53876;DHT22;39789;53.216;5.624;2023-11-19T09:11:56;11.70;99.90
53876;DHT22;39789;53.216;5.624;2023-11-19T09:14:21;11.70;99.90
53876;DHT22;39789;53.216;5.624;2023-11-19T09:16:51;11.80;99.90
53876;DHT22;39789;53.216;5.624;2023-11-19T09:19:17;11.80;99.90
53876;DHT22;39789;53.216;5.624;2023-11-19T09:21:43;11.90;99.90
53876;DHT22;39789;53.216;5.624;2023-11-19T09:24:09;13.50;99.90
53876;DHT22;39789;53.216;5.624;2023-11-19T09:26:36;12.00;99.90
53876;DHT22;39789;53.216;5.624;2023-11-19T09:29:04;13.20;99.90
53876;DHT22;39789;53.216;5.624;2023-11-19T09:31:30;12.00;99.90
53876;DHT22;39789;53.216;5.624;2023-11-19T09:33:56;12.10;99.90
53876;DHT22;39789;53.216;5.624;2023-11-19T09:36:21;13.20;99.90
53876;DHT22;39789;53.216;5.624;2023-11-19T09:38:47;12.20;99.90
53876;DHT22;39789;53.216;5.624;2023-11-19T09:41:12;12.20;99.90
53876;DHT22;39789;53.216;5.624;2023-11-19T09:43:42;12.10;99.90
53876;DHT22;39789;53.216;5.624;2023-11-19T09:46:13;12.10;99.90
53876;DHT22;39789;53.216;5.624;2023-11-19T09:48:40;13.60;99.90
53876;DHT22;39789;53.216;5.624;2023-11-19T09:51:12;12.20;99.90
53876;DHT22;39789;53.216;5.624;2023-11-19T09:53:38;12.20;99.90
53876;DHT22;39789;53.216;5.624;2023-11-19T09:56:07;12.30;99.90
53876;DHT22;39789;53.216;5.624;2023-11-19T09:58:35;12.30;99.90
53876;DHT22;39789;53.216;5.624;2023-11-19T10:01:01;12.30;99.90
53876;DHT22;39789;53.216;5.624;2023-11-19T10:03:35;12.30;99.90
53876;DHT22;39789;53.216;5.624;2023-11-19T10:06:08;12.40;99.90
53876;DHT22;39789;53.216;5.624;2023-11-19T10:08:37;12.40;99.90
53876;DHT22;39789;53.216;5.624;2023-11-19T10:11:03;12.40;99.90
53876;DHT22;39789;53.216;5.624;2023-11-19T10:13:29;12.40;99.90
53876;DHT22;39789;53.216;5.624;2023-11-19T10:15:56;14.00;99.90
53876;DHT22;39789;53.216;5.624;2023-11-19T10:18:26;13.20;99.90
53876;DHT22;39789;53.216;5.624;2023-11-19T10:20:52;13.70;99.90
53876;DHT22;39789;53.216;5.624;2023-11-19T10:23:20;12.40;99.90
53876;DHT22;39789;53.216;5.624;2023-11-19T10:25:49;13.40;99.90
53876;DHT22;39789;53.216;5.624;2023-11-19T10:28:18;12.20;99.90
53876;DHT22;39789;53.216;5.624;2023-11-19T10:30:48;12.40;99.90
53876;DHT22;39789;53.216;5.624;2023-11-19T10:33:15;13.00;99.90
53876;DHT22;39789;53.216;5.624;2023-11-19T10:35:53;13.60;99.90
53876;DHT22;39789;53.216;5.624;2023-11-19T10:38:19;12.50;99.90
53876;DHT22;39789;53.216;5.624;2023-11-19T10:40:46;12.50;99.90
53876;DHT22;39789;53.216;5.624;2023-11-19T10:43:12;13.80;99.90
53876;DHT22;39789;53.216;5.624;2023-11-19T10:45:40;13.50;99.90
53876;DHT22;39789;53.216;5.624;2023-11-19T10:48:07;12.50;99.90
53876;DHT22;39789;53.216;5.624;2023-11-19T10:50:40;14.00;99.90
53876;DHT22;39789;53.216;5.624;2023-11-19T10:53:08;12.30;99.90
53876;DHT22;39789;53.216;5.624;2023-11-19T10:55:37;13.80;99.90
53876;DHT22;39789;53.216;5.624;2023-11-19T10:58:07;12.70;99.90
53876;DHT22;39789;53.216;5.624;2023-11-19T11:00:55;14.30;99.90
53876;DHT22;39789;53.216;5.624;2023-11-19T11:03:25;14.20;99.90
53876;DHT22;39789;53.216;5.624;2023-11-19T11:05:52;13.20;99.90
53876;DHT22;39789;53.216;5.624;2023-11-19T11:08:19;12.60;99.90
53876;DHT22;39789;53.216;5.624;2023-11-19T11:10:53;14.00;99.90
53876;DHT22;39789;53.216;5.624;2023-11-19T11:13:19;12.60;99.90
53876;DHT22;39789;53.216;5.624;2023-11-19T11:15:49;12.60;99.90
53876;DHT22;39789;53.216;5.624;2023-11-19T11:18:16;12.60;99.90
53876;DHT22;39789;53.216;5.624;2023-11-19T11:20:45;13.80;99.90
53876;DHT22;39789;53.216;5.624;2023-11-19T11:23:28;13.90;99.90
53876;DHT22;39789;53.216;5.624;2023-11-19T11:32:05;12.90;99.90
53876;DHT22;39789;53.216;5.624;2023-11-19T11:39:36;13.10;99.90
53876;DHT22;39789;53.216;5.624;2023-11-19T11:44:59;13.60;99.90
53876;DHT22;39789;53.216;5.624;2023-11-19T11:55:25;12.80;99.90
53876;DHT22;39789;53.216;5.624;2023-11-19T11:57:50;12.70;99.90
53876;DHT22;39789;53.216;5.624;2023-11-19T12:00:27;12.70;99.90
53876;DHT22;39789;53.216;5.624;2023-11-19T12:02:56;12.70;99.90
53876;DHT22;39789;53.216;5.624;2023-11-19T12:05:23;12.60;99.90
53876;DHT22;39789;53.216;5.624;2023-11-19T12:07:55;12.70;99.90
53876;DHT22;39789;53.216;5.624;2023-11-19T12:10:24;12.70;99.90
53876;DHT22;39789;53.216;5.624;2023-11-19T12:12:53;12.70;99.90
53876;DHT22;39789;53.216;5.624;2023-11-19T12:15:19;12.70;99.90
53876;DHT22;39789;53.216;5.624;2023-11-19T12:17:52;12.80;99.90
53876;DHT22;39789;53.216;5.624;2023-11-19T12:20:19;12.70;99.90
53876;DHT22;39789;53.216;5.624;2023-11-19T12:22:46;13.70;99.90
53876;DHT22;39789;53.216;5.624;2023-11-19T12:25:17;13.80;99.90
53876;DHT22;39789;53.216;5.624;2023-11-19T12:27:45;12.80;99.90
53876;DHT22;39789;53.216;5.624;2023-11-19T12:30:12;14.40;99.90
53876;DHT22;39789;53.216;5.624;2023-11-19T12:32:41;12.90;99.90
53876;DHT22;39789;53.216;5.624;2023-11-19T12:35:08;13.70;99.90
53876;DHT22;39789;53.216;5.624;2023-11-19T12:40:15;13.10;99.90
53876;DHT22;39789;53.216;5.624;2023-11-19T12:42:41;13.70;99.90
53876;DHT22;39789;53.216;5.624;2023-11-19T12:45:07;13.00;99.90
53876;DHT22;39789;53.216;5.624;2023-11-19T12:47:39;12.90;99.90
53876;DHT22;39789;53.216;5.624;2023-11-19T12:50:08;14.10;99.90
53876;DHT22;39789;53.216;5.624;2023-11-19T12:52:35;12.90;99.90
53876;DHT22;39789;53.216;5.624;2023-11-19T12:57:45;12.90;99.90
53876;DHT22;39789;53.216;5.624;2023-11-19T13:00:23;12.70;99.90
53876;DHT22;39789;53.216;5.624;2023-11-19T13:02:53;12.80;99.90
53876;DHT22;39789;53.216;5.624;2023-11-19T13:08:05;12.80;99.90
53876;DHT22;39789;53.216;5.624;2023-11-19T13:10:51;12.70;99.90
53876;DHT22;39789;53.216;5.624;2023-11-19T13:13:25;12.70;99.90
53876;DHT22;39789;53.216;5.624;2023-11-19T13:15:51;13.80;99.90
53876;DHT22;39789;53.216;5.624;2023-11-19T13:18:16;13.10;99.90
53876;DHT22;39789;53.216;5.624;2023-11-19T13:20:42;12.60;99.90
53876;DHT22;39789;53.216;5.624;2023-11-19T13:23:08;12.50;99.90
53876;DHT22;39789;53.216;5.624;2023-11-19T13:25:34;12.50;99.90
53876;DHT22;39789;53.216;5.624;2023-11-19T13:28:02;14.00;99.90
53876;DHT22;39789;53.216;5.624;2023-11-19T13:30:28;12.40;99.90
53876;DHT22;39789;53.216;5.624;2023-11-19T13:32:54;12.50;99.90
53876;DHT22;39789;53.216;5.624;2023-11-19T13:35:20;13.00;99.90
53876;DHT22;39789;53.216;5.624;2023-11-19T13:37:46;12.50;99.90
53876;DHT22;39789;53.216;5.624;2023-11-19T13:40:12;12.50;99.90
53876;DHT22;39789;53.216;5.624;2023-11-19T13:42:43;12.50;99.90
53876;DHT22;39789;53.216;5.624;2023-11-19T13:45:13;12.50;99.90
53876;DHT22;39789;53.216;5.624;2023-11-19T13:47:43;14.00;99.90
53876;DHT22;39789;53.216;5.624;2023-11-19T13:50:12;12.50;99.90
53876;DHT22;39789;53.216;5.624;2023-11-19T13:52:39;13.90;99.90
53876;DHT22;39789;53.216;5.624;2023-11-19T13:55:07;11.90;99.90
53876;DHT22;39789;53.216;5.624;2023-11-19T13:57:39;12.40;99.90
53876;DHT22;39789;53.216;5.624;2023-11-19T14:00:10;12.40;99.90
53876;DHT22;39789;53.216;5.624;2023-11-19T14:02:42;12.40;99.90
53876;DHT22;39789;53.216;5.624;2023-11-19T14:05:11;13.30;99.90
53876;DHT22;39789;53.216;5.624;2023-11-19T14:07:38;12.30;99.90
53876;DHT22;39789;53.216;5.624;2023-11-19T14:10:05;12.30;99.90
53876;DHT22;39789;53.216;5.624;2023-11-19T14:12:34;12.30;99.90
53876;DHT22;39789;53.216;5.624;2023-11-19T14:14:59;12.40;99.90
53876;DHT22;39789;53.216;5.624;2023-11-19T14:17:26;13.50;99.90
53876;DHT22;39789;53.216;5.624;2023-11-19T14:19:52;13.40;99.90
53876;DHT22;39789;53.216;5.624;2023-11-19T14:22:18;11.70;99.90
53876;DHT22;39789;53.216;5.624;2023-11-19T14:24:43;12.00;99.90
53876;DHT22;39789;53.216;5.624;2023-11-19T14:27:12;12.00;99.90
53876;DHT22;39789;53.216;5.624;2023-11-19T14:29:38;12.80;99.90
53876;DHT22;39789;53.216;5.624;2023-11-19T14:32:05;13.80;99.90
53876;DHT22;39789;53.216;5.624;2023-11-19T14:34:34;12.20;99.90
53876;DHT22;39789;53.216;5.624;2023-11-19T14:36:59;11.70;99.90
53876;DHT22;39789;53.216;5.624;2023-11-19T14:39:26;13.30;99.90
53876;DHT22;39789;53.216;5.624;2023-11-19T14:41:53;12.50;99.90
53876;DHT22;39789;53.216;5.624;2023-11-19T14:44:23;12.10;99.90
53876;DHT22;39789;53.216;5.624;2023-11-19T14:46:49;13.20;99.90
53876;DHT22;39789;53.216;5.624;2023-11-19T14:49:15;11.80;99.90
53876;DHT22;39789;53.216;5.624;2023-11-19T14:51:41;12.50;99.90
53876;DHT22;39789;53.216;5.624;2023-11-19T14:54:06;12.10;99.90
53876;DHT22;39789;53.216;5.624;2023-11-19T14:56:32;13.10;99.90
53876;DHT22;39789;53.216;5.624;2023-11-19T14:58:58;12.00;99.90
53876;DHT22;39789;53.216;5.624;2023-11-19T15:01:24;12.10;99.90
53876;DHT22;39789;53.216;5.624;2023-11-19T15:03:50;12.10;99.90
53876;DHT22;39789;53.216;5.624;2023-11-19T15:06:16;11.80;99.90
53876;DHT22;39789;53.216;5.624;2023-11-19T15:08:42;13.60;99.90
53876;DHT22;39789;53.216;5.624;2023-11-19T15:11:10;11.90;99.90
53876;DHT22;39789;53.216;5.624;2023-11-19T15:13:37;13.30;99.90
53876;DHT22;39789;53.216;5.624;2023-11-19T15:16:04;13.40;99.90
53876;DHT22;39789;53.216;5.624;2023-11-19T15:18:36;11.90;99.90
53876;DHT22;39789;53.216;5.624;2023-11-19T15:21:02;11.70;99.90
53876;DHT22;39789;53.216;5.624;2023-11-19T15:23:27;11.70;99.90
53876;DHT22;39789;53.216;5.624;2023-11-19T15:25:54;13.30;99.90
53876;DHT22;39789;53.216;5.624;2023-11-19T15:28:20;11.40;99.90
53876;DHT22;39789;53.216;5.624;2023-11-19T15:30:47;11.50;99.90
53876;DHT22;39789;53.216;5.624;2023-11-19T15:33:12;11.60;99.90
53876;DHT22;39789;53.216;5.624;2023-11-19T15:35:38;11.60;99.90
53876;DHT22;39789;53.216;5.624;2023-11-19T15:38:05;11.60;99.90
53876;DHT22;39789;53.216;5.624;2023-11-19T15:40:32;11.60;99.90
53876;DHT22;39789;53.216;5.624;2023-11-19T15:42:58;11.60;99.90
53876;DHT22;39789;53.216;5.624;2023-11-19T15:45:24;11.60;99.90
53876;DHT22;39789;53.216;5.624;2023-11-19T15:47:53;12.10;99.90
53876;DHT22;39789;53.216;5.624;2023-11-19T15:50:20;12.40;99.90
53876;DHT22;39789;53.216;5.624;2023-11-19T15:52:46;11.90;99.90
53876;DHT22;39789;53.216;5.624;2023-11-19T15:55:11;11.50;99.90
53876;DHT22;39789;53.216;5.624;2023-11-19T15:57:43;11.50;99.90
53876;DHT22;39789;53.216;5.624;2023-11-19T16:00:11;11.50;99.90
53876;DHT22;39789;53.216;5.624;2023-11-19T16:02:37;11.50;99.90